sensor_id;sensor_type;location;lat;lon;timestamp;pressure;altitude;pressure_sealevel;temperature;humidity
26087;BME280;13851;43.434;28.338;2022-12-07T00:01:24;100212.56;;;9.86;100.00
26087;BME280;13851;43.434;28.338;2022-12-07T00:03:52;100205.03;;;9.96;100.00
26087;BME280;13851;43.434;28.338;2022-12-07T00:06:18;100167.03;;;9.52;100.00
26087;BME280;13851;43.434;28.338;2022-12-07T00:08:45;100218.53;;;9.81;100.00
26087;BME280;13851;43.434;28.338;2022-12-07T00:11:19;100226.06;;;9.79;100.00
26087;BME280;13851;43.434;28.338;2022-12-07T00:13:46;100229.84;;;9.86;100.00
26087;BME280;13851;43.434;28.338;2022-12-07T00:16:14;100181.25;;;9.64;100.00
26087;BME280;13851;43.434;28.338;2022-12-07T00:18:44;100217.19;;;9.85;100.00
26087;BME280;13851;43.434;28.338;2022-12-07T00:21:18;100212.03;;;9.82;100.00
26087;BME280;13851;43.434;28.338;2022-12-07T00:23:48;100225.75;;;9.90;100.00
26087;BME280;13851;43.434;28.338;2022-12-07T00:26:23;100226.06;;;9.87;100.00
26087;BME280;13851;43.434;28.338;2022-12-07T00:28:51;100221.47;;;9.88;100.00
26087;BME280;13851;43.434;28.338;2022-12-07T00:31:21;100217.19;;;9.85;100.00
26087;BME280;13851;43.434;28.338;2022-12-07T00:33:50;99970.34;;;8.43;100.00
26087;BME280;13851;43.434;28.338;2022-12-07T00:36:19;100181.25;;;9.64;100.00
26087;BME280;13851;43.434;28.338;2022-12-07T00:38:45;100066.28;;;8.99;100.00
26087;BME280;13851;43.434;28.338;2022-12-07T00:41:22;100220.25;;;9.90;100.00
26087;BME280;13851;43.434;28.338;2022-12-07T00:43:51;100201.94;;;9.75;100.00
26087;BME280;13851;43.434;28.338;2022-12-07T00:46:20;100093.25;;;8.94;100.00
26087;BME280;13851;43.434;28.338;2022-12-07T00:48:49;100227.81;;;9.88;100.00
26087;BME280;13851;43.434;28.338;2022-12-07T00:51:16;99930.75;;;7.37;100.00
26087;BME280;13851;43.434;28.338;2022-12-07T00:53:43;100248.63;;;9.81;100.00
26087;BME280;13851;43.434;28.338;2022-12-07T00:56:12;100212.91;;;9.91;100.00
26087;BME280;13851;43.434;28.338;2022-12-07T00:58:38;100219.59;;;9.88;100.00
26087;BME280;13851;43.434;28.338;2022-12-07T01:01:06;100181.25;;;9.64;100.00
26087;BME280;13851;43.434;28.338;2022-12-07T01:03:32;100218.56;;;9.89;100.00
26087;BME280;13851;43.434;28.338;2022-12-07T01:05:58;99981.50;;;8.50;100.00
26087;BME280;13851;43.434;28.338;2022-12-07T01:08:25;100242.69;;;9.94;100.00
26087;BME280;13851;43.434;28.338;2022-12-07T01:11:07;100223.03;;;9.99;100.00
26087;BME280;13851;43.434;28.338;2022-12-07T01:13:34;100226.41;;;9.84;100.00
26087;BME280;13851;43.434;28.338;2022-12-07T01:16:03;100193.44;;;9.94;100.00
26087;BME280;13851;43.434;28.338;2022-12-07T01:18:30;100214.31;;;10.03;100.00
26087;BME280;13851;43.434;28.338;2022-12-07T01:21:01;100198.19;;;9.76;100.00
26087;BME280;13851;43.434;28.338;2022-12-07T01:23:27;100236.53;;;10.00;100.00
26087;BME280;13851;43.434;28.338;2022-12-07T01:26:04;100215.66;;;10.07;100.00
26087;BME280;13851;43.434;28.338;2022-12-07T01:28:32;100171.69;;;9.84;100.00
26087;BME280;13851;43.434;28.338;2022-12-07T01:31:06;100153.72;;;9.82;100.00
26087;BME280;13851;43.434;28.338;2022-12-07T01:33:36;100180.06;;;9.75;100.00
26087;BME280;13851;43.434;28.338;2022-12-07T01:36:28;100138.31;;;9.56;100.00
26087;BME280;13851;43.434;28.338;2022-12-07T01:38:56;100186.56;;;10.06;100.00
26087;BME280;13851;43.434;28.338;2022-12-07T01:41:23;100184.19;;;10.03;100.00
26087;BME280;13851;43.434;28.338;2022-12-07T01:44:17;100180.25;;;10.06;100.00
26087;BME280;13851;43.434;28.338;2022-12-07T01:46:49;100044.09;;;9.02;100.00
26087;BME280;13851;43.434;28.338;2022-12-07T01:49:35;100171.88;;;9.99;100.00
26087;BME280;13851;43.434;28.338;2022-12-07T01:52:29;100180.09;;;9.99;100.00
26087;BME280;13851;43.434;28.338;2022-12-07T01:55:00;100156.47;;;9.90;100.00
26087;BME280;13851;43.434;28.338;2022-12-07T01:57:26;100130.97;;;9.57;100.00
26087;BME280;13851;43.434;28.338;2022-12-07T01:59:53;99949.09;;;8.63;100.00
26087;BME280;13851;43.434;28.338;2022-12-07T02:02:31;100156.16;;;9.93;100.00
26087;BME280;13851;43.434;28.338;2022-12-07T02:05:00;100166.56;;;9.81;100.00
26087;BME280;13851;43.434;28.338;2022-12-07T02:07:27;100124.81;;;9.71;100.00
26087;BME280;13851;43.434;28.338;2022-12-07T02:09:53;100193.44;;;9.94;100.00
26087;BME280;13851;43.434;28.338;2022-12-07T02:12:19;100200.94;;;10.00;100.00
26087;BME280;13851;43.434;28.338;2022-12-07T02:14:46;100151.34;;;9.95;100.00
26087;BME280;13851;43.434;28.338;2022-12-07T02:17:22;100173.06;;;10.05;100.00
26087;BME280;13851;43.434;28.338;2022-12-07T02:28:31;100153.22;;;9.95;100.00
26087;BME280;13851;43.434;28.338;2022-12-07T02:31:03;100173.59;;;10.08;100.00
26087;BME280;13851;43.434;28.338;2022-12-07T02:33:36;100186.41;;;10.16;100.00
26087;BME280;13851;43.434;28.338;2022-12-07T02:36:17;100140.56;;;9.85;100.00
26087;BME280;13851;43.434;28.338;2022-12-07T02:41:37;100182.31;;;10.04;100.00
26087;BME280;13851;43.434;28.338;2022-12-07T02:44:13;100163.47;;;9.84;100.00
26087;BME280;13851;43.434;28.338;2022-12-07T02:46:43;100214.44;;;10.02;100.00
26087;BME280;13851;43.434;28.338;2022-12-07T02:49:10;100176.13;;;9.77;100.00
26087;BME280;13851;43.434;28.338;2022-12-07T02:51:41;100183.66;;;10.08;100.00
26087;BME280;13851;43.434;28.338;2022-12-07T02:54:16;100173.25;;;9.95;100.00
26087;BME280;13851;43.434;28.338;2022-12-07T03:02:17;100197.03;;;10.19;100.00
26087;BME280;13851;43.434;28.338;2022-12-07T03:05:17;100191.56;;;10.19;100.00
26087;BME280;13851;43.434;28.338;2022-12-07T03:08:15;100189.31;;;10.14;100.00
26087;BME280;13851;43.434;28.338;2022-12-07T03:10:57;100192.59;;;10.26;100.00
26087;BME280;13851;43.434;28.338;2022-12-07T03:13:46;100199.97;;;10.34;100.00
26087;BME280;13851;43.434;28.338;2022-12-07T03:16:35;100188.16;;;10.25;100.00
26087;BME280;13851;43.434;28.338;2022-12-07T03:19:07;100191.41;;;10.29;100.00
26087;BME280;13851;43.434;28.338;2022-12-07T03:21:37;100186.09;;;10.35;100.00
26087;BME280;13851;43.434;28.338;2022-12-07T03:24:08;100185.72;;;10.38;100.00
26087;BME280;13851;43.434;28.338;2022-12-07T03:26:38;100103.81;;;9.80;100.00
26087;BME280;13851;43.434;28.338;2022-12-07T03:29:16;100166.72;;;10.21;100.00
26087;BME280;13851;43.434;28.338;2022-12-07T03:31:46;100176.00;;;10.28;100.00
26087;BME280;13851;43.434;28.338;2022-12-07T03:34:30;100186.09;;;10.27;100.00
26087;BME280;13851;43.434;28.338;2022-12-07T03:37:04;100182.84;;;10.24;100.00
26087;BME280;13851;43.434;28.338;2022-12-07T03:39:38;100174.41;;;10.17;100.00
26087;BME280;13851;43.434;28.338;2022-12-07T03:42:07;100145.34;;;9.92;100.00
26087;BME280;13851;43.434;28.338;2022-12-07T03:44:36;100089.25;;;9.55;100.00
26087;BME280;13851;43.434;28.338;2022-12-07T03:47:33;100171.00;;;10.07;100.00
26087;BME280;13851;43.434;28.338;2022-12-07T03:50:57;100162.44;;;10.02;100.00
26087;BME280;13851;43.434;28.338;2022-12-07T03:52:58;100129.63;;;9.69;100.00
26087;BME280;13851;43.434;28.338;2022-12-07T03:55:31;100121.75;;;9.90;100.00
26087;BME280;13851;43.434;28.338;2022-12-07T03:58:06;100170.69;;;10.10;100.00
26087;BME280;13851;43.434;28.338;2022-12-07T04:00:37;100120.75;;;9.83;100.00
26087;BME280;13851;43.434;28.338;2022-12-07T04:03:02;99476.06;;;6.00;100.00
26087;BME280;13851;43.434;28.338;2022-12-07T04:05:31;100128.06;;;9.91;100.00
26087;BME280;13851;43.434;28.338;2022-12-07T04:08:00;100174.66;;;10.24;100.00
26087;BME280;13851;43.434;28.338;2022-12-07T04:10:28;100176.13;;;10.18;100.00
26087;BME280;13851;43.434;28.338;2022-12-07T04:12:53;99791.63;;;7.97;100.00
26087;BME280;13851;43.434;28.338;2022-12-07T04:15:19;100196.34;;;10.09;100.00
26087;BME280;13851;43.434;28.338;2022-12-07T04:17:45;100063.97;;;9.53;100.00
26087;BME280;13851;43.434;28.338;2022-12-07T04:20:11;100100.56;;;9.68;100.00
26087;BME280;13851;43.434;28.338;2022-12-07T04:22:36;100157.00;;;9.94;100.00
26087;BME280;13851;43.434;28.338;2022-12-07T04:25:02;100151.50;;;10.18;100.00
26087;BME280;13851;43.434;28.338;2022-12-07T04:27:28;99889.69;;;8.57;100.00
26087;BME280;13851;43.434;28.338;2022-12-07T04:29:53;100119.69;;;9.93;100.00
26087;BME280;13851;43.434;28.338;2022-12-07T04:32:21;100166.59;;;10.30;100.00
26087;BME280;13851;43.434;28.338;2022-12-07T04:34:49;99919.91;;;8.72;100.00
26087;BME280;13851;43.434;28.338;2022-12-07T04:37:15;100151.50;;;10.18;100.00
26087;BME280;13851;43.434;28.338;2022-12-07T04:39:41;100133.03;;;10.04;100.00
26087;BME280;13851;43.434;28.338;2022-12-07T04:42:06;100079.03;;;9.73;100.00
26087;BME280;13851;43.434;28.338;2022-12-07T04:44:32;100076.09;;;9.67;100.00
26087;BME280;13851;43.434;28.338;2022-12-07T04:47:00;99933.91;;;8.85;100.00
26087;BME280;13851;43.434;28.338;2022-12-07T04:49:25;100134.06;;;9.95;100.00
26087;BME280;13851;43.434;28.338;2022-12-07T04:51:51;100150.13;;;9.98;100.00
26087;BME280;13851;43.434;28.338;2022-12-07T04:54:17;99898.34;;;8.44;100.00
26087;BME280;13851;43.434;28.338;2022-12-07T04:56:45;100151.88;;;9.99;100.00
26087;BME280;13851;43.434;28.338;2022-12-07T04:59:11;100132.00;;;9.80;100.00
26087;BME280;13851;43.434;28.338;2022-12-07T05:01:37;99914.44;;;8.64;100.00
26087;BME280;13851;43.434;28.338;2022-12-07T05:04:06;100153.56;;;10.16;100.00
26087;BME280;13851;43.434;28.338;2022-12-07T05:06:32;99861.34;;;8.42;100.00
26087;BME280;13851;43.434;28.338;2022-12-07T05:08:58;100177.53;;;10.14;100.00
26087;BME280;13851;43.434;28.338;2022-12-07T05:11:23;100136.09;;;9.93;100.00
26087;BME280;13851;43.434;28.338;2022-12-07T05:16:41;100138.84;;;9.93;100.00
26087;BME280;13851;43.434;28.338;2022-12-07T05:19:13;100132.34;;;9.85;100.00
26087;BME280;13851;43.434;28.338;2022-12-07T05:21:41;100049.59;;;9.51;100.00
26087;BME280;13851;43.434;28.338;2022-12-07T05:24:09;100117.66;;;9.86;100.00
26087;BME280;13851;43.434;28.338;2022-12-07T05:26:35;100041.56;;;9.41;100.00
26087;BME280;13851;43.434;28.338;2022-12-07T05:29:03;99970.13;;;8.95;100.00
26087;BME280;13851;43.434;28.338;2022-12-07T05:31:29;100104.28;;;9.51;100.00
26087;BME280;13851;43.434;28.338;2022-12-07T05:33:55;100116.81;;;9.78;100.00
26087;BME280;13851;43.434;28.338;2022-12-07T05:36:21;100160.75;;;9.84;100.00
26087;BME280;13851;43.434;28.338;2022-12-07T05:38:46;100100.56;;;9.68;100.00
26087;BME280;13851;43.434;28.338;2022-12-07T05:41:17;99883.81;;;8.36;100.00
26087;BME280;13851;43.434;28.338;2022-12-07T05:44:01;100113.53;;;9.66;100.00
26087;BME280;13851;43.434;28.338;2022-12-07T05:46:27;100081.41;;;9.44;100.00
26087;BME280;13851;43.434;28.338;2022-12-07T05:48:52;100148.44;;;9.80;100.00
26087;BME280;13851;43.434;28.338;2022-12-07T05:51:18;100185.41;;;10.09;100.00
26087;BME280;13851;43.434;28.338;2022-12-07T05:53:44;100017.03;;;8.66;100.00
26087;BME280;13851;43.434;28.338;2022-12-07T05:56:12;100171.38;;;10.04;100.00
26087;BME280;13851;43.434;28.338;2022-12-07T05:58:40;100160.97;;;10.24;100.00
26087;BME280;13851;43.434;28.338;2022-12-07T06:01:24;100159.75;;;10.26;100.00
26087;BME280;13851;43.434;28.338;2022-12-07T06:03:50;100160.75;;;10.33;100.00
26087;BME280;13851;43.434;28.338;2022-12-07T06:06:15;99700.91;;;7.70;100.00
26087;BME280;13851;43.434;28.338;2022-12-07T06:08:41;99903.72;;;8.87;100.00
26087;BME280;13851;43.434;28.338;2022-12-07T06:11:06;100150.81;;;10.32;100.00
26087;BME280;13851;43.434;28.338;2022-12-07T06:13:52;100112.31;;;10.18;100.00
26087;BME280;13851;43.434;28.338;2022-12-07T06:16:18;99909.69;;;8.98;100.00
26087;BME280;13851;43.434;28.338;2022-12-07T06:18:49;100102.25;;;10.10;100.00
26087;BME280;13851;43.434;28.338;2022-12-07T06:21:14;100147.25;;;10.32;100.00
26087;BME280;13851;43.434;28.338;2022-12-07T06:23:40;100136.94;;;10.18;100.00
26087;BME280;13851;43.434;28.338;2022-12-07T06:26:08;100149.13;;;10.15;100.00
26087;BME280;13851;43.434;28.338;2022-12-07T06:28:34;100034.75;;;9.78;100.00
26087;BME280;13851;43.434;28.338;2022-12-07T06:31:02;99916.69;;;9.17;100.00
26087;BME280;13851;43.434;28.338;2022-12-07T06:33:28;100141.84;;;10.63;100.00
26087;BME280;13851;43.434;28.338;2022-12-07T06:35:54;100151.38;;;10.83;100.00
26087;BME280;13851;43.434;28.338;2022-12-07T06:38:20;100152.22;;;10.84;100.00
26087;BME280;13851;43.434;28.338;2022-12-07T06:40:48;100111.19;;;10.76;100.00
26087;BME280;13851;43.434;28.338;2022-12-07T06:43:14;100121.16;;;11.00;100.00
26087;BME280;13851;43.434;28.338;2022-12-07T06:45:40;99876.03;;;9.22;100.00
26087;BME280;13851;43.434;28.338;2022-12-07T06:48:06;100084.78;;;10.27;100.00
26087;BME280;13851;43.434;28.338;2022-12-07T06:50:35;100094.63;;;10.61;100.00
26087;BME280;13851;43.434;28.338;2022-12-07T06:53:03;100149.09;;;10.95;100.00
26087;BME280;13851;43.434;28.338;2022-12-07T06:55:28;100121.00;;;11.01;100.00
26087;BME280;13851;43.434;28.338;2022-12-07T06:57:54;100161.34;;;10.76;100.00
26087;BME280;13851;43.434;28.338;2022-12-07T07:00:20;100091.63;;;10.39;100.00
26087;BME280;13851;43.434;28.338;2022-12-07T07:02:46;100112.81;;;10.37;100.00
26087;BME280;13851;43.434;28.338;2022-12-07T07:05:11;100103.22;;;10.41;100.00
26087;BME280;13851;43.434;28.338;2022-12-07T07:07:37;100092.47;;;10.32;100.00
26087;BME280;13851;43.434;28.338;2022-12-07T07:10:05;100123.78;;;10.37;100.00
26087;BME280;13851;43.434;28.338;2022-12-07T07:12:31;100113.16;;;10.51;100.00
26087;BME280;13851;43.434;28.338;2022-12-07T07:14:56;100109.72;;;10.49;100.00
26087;BME280;13851;43.434;28.338;2022-12-07T07:17:22;100112.75;;;10.70;100.00
26087;BME280;13851;43.434;28.338;2022-12-07T07:19:47;100091.50;;;10.64;100.00
26087;BME280;13851;43.434;28.338;2022-12-07T07:22:13;100073.75;;;10.52;100.00
26087;BME280;13851;43.434;28.338;2022-12-07T07:24:38;100115.19;;;10.96;100.00
26087;BME280;13851;43.434;28.338;2022-12-07T07:27:04;100057.75;;;10.08;100.00
26087;BME280;13851;43.434;28.338;2022-12-07T07:29:29;100115.75;;;10.20;100.00
26087;BME280;13851;43.434;28.338;2022-12-07T07:31:55;100129.19;;;10.62;100.00
26087;BME280;13851;43.434;28.338;2022-12-07T07:34:20;99827.56;;;8.83;100.00
26087;BME280;13851;43.434;28.338;2022-12-07T07:36:46;100109.63;;;10.73;100.00
26087;BME280;13851;43.434;28.338;2022-12-07T07:39:11;100122.63;;;10.79;100.00
26087;BME280;13851;43.434;28.338;2022-12-07T07:41:38;100130.66;;;11.20;100.00
26087;BME280;13851;43.434;28.338;2022-12-07T07:44:03;100129.03;;;11.03;100.00
26087;BME280;13851;43.434;28.338;2022-12-07T07:46:29;100088.34;;;11.14;100.00
26087;BME280;13851;43.434;28.338;2022-12-07T07:48:54;100045.19;;;10.85;100.00
26087;BME280;13851;43.434;28.338;2022-12-07T07:51:20;100127.31;;;11.64;100.00
26087;BME280;13851;43.434;28.338;2022-12-07T07:53:45;100094.00;;;11.44;100.00
26087;BME280;13851;43.434;28.338;2022-12-07T07:56:11;100134.31;;;11.43;100.00
26087;BME280;13851;43.434;28.338;2022-12-07T07:58:37;100115.94;;;11.44;100.00
26087;BME280;13851;43.434;28.338;2022-12-07T08:01:09;100101.66;;;11.26;100.00
26087;BME280;13851;43.434;28.338;2022-12-07T08:03:35;100140.31;;;11.39;100.00
26087;BME280;13851;43.434;28.338;2022-12-07T08:06:04;100086.03;;;11.03;100.00
26087;BME280;13851;43.434;28.338;2022-12-07T08:08:30;100096.03;;;11.19;100.00
26087;BME280;13851;43.434;28.338;2022-12-07T08:10:56;100065.69;;;11.20;100.00
26087;BME280;13851;43.434;28.338;2022-12-07T08:13:25;100113.03;;;11.68;100.00
26087;BME280;13851;43.434;28.338;2022-12-07T08:15:51;100113.22;;;11.67;100.00
26087;BME280;13851;43.434;28.338;2022-12-07T08:18:17;100094.50;;;11.48;100.00
26087;BME280;13851;43.434;28.338;2022-12-07T08:20:42;100099.44;;;11.75;100.00
26087;BME280;13851;43.434;28.338;2022-12-07T08:23:11;100090.44;;;11.89;100.00
26087;BME280;13851;43.434;28.338;2022-12-07T08:25:37;99873.69;;;10.68;100.00
26087;BME280;13851;43.434;28.338;2022-12-07T08:28:03;100067.31;;;11.84;100.00
26087;BME280;13851;43.434;28.338;2022-12-07T08:30:29;100109.19;;;12.01;100.00
26087;BME280;13851;43.434;28.338;2022-12-07T08:32:55;100070.19;;;12.05;100.00
26087;BME280;13851;43.434;28.338;2022-12-07T08:35:24;100090.34;;;11.97;100.00
26087;BME280;13851;43.434;28.338;2022-12-07T08:37:49;100048.53;;;11.73;100.00
26087;BME280;13851;43.434;28.338;2022-12-07T08:40:15;99902.00;;;10.60;100.00
26087;BME280;13851;43.434;28.338;2022-12-07T08:42:48;100038.41;;;11.27;100.00
26087;BME280;13851;43.434;28.338;2022-12-07T08:45:15;100073.06;;;11.20;100.00
26087;BME280;13851;43.434;28.338;2022-12-07T08:47:44;100049.75;;;11.24;100.00
26087;BME280;13851;43.434;28.338;2022-12-07T08:50:14;100093.50;;;11.40;100.00
26087;BME280;13851;43.434;28.338;2022-12-07T08:52:41;100067.97;;;11.17;100.00
26087;BME280;13851;43.434;28.338;2022-12-07T08:55:09;100042.25;;;10.87;100.00
26087;BME280;13851;43.434;28.338;2022-12-07T08:57:39;100068.38;;;11.06;100.00
26087;BME280;13851;43.434;28.338;2022-12-07T09:00:08;100088.72;;;11.42;100.00
26087;BME280;13851;43.434;28.338;2022-12-07T09:02:34;100064.31;;;11.48;100.00
26087;BME280;13851;43.434;28.338;2022-12-07T09:05:00;100111.69;;;11.87;100.00
26087;BME280;13851;43.434;28.338;2022-12-07T09:07:26;100069.63;;;11.72;100.00
26087;BME280;13851;43.434;28.338;2022-12-07T09:09:51;100103.47;;;11.87;100.00
26087;BME280;13851;43.434;28.338;2022-12-07T09:12:17;100046.09;;;11.55;100.00
26087;BME280;13851;43.434;28.338;2022-12-07T09:14:42;100027.38;;;11.35;100.00
26087;BME280;13851;43.434;28.338;2022-12-07T09:17:10;100068.75;;;11.94;100.00
26087;BME280;13851;43.434;28.338;2022-12-07T09:19:36;100056.44;;;11.90;100.00
26087;BME280;13851;43.434;28.338;2022-12-07T09:22:02;99991.81;;;11.65;100.00
26087;BME280;13851;43.434;28.338;2022-12-07T09:24:30;100014.59;;;11.88;100.00
26087;BME280;13851;43.434;28.338;2022-12-07T09:26:58;99791.69;;;10.44;100.00
26087;BME280;13851;43.434;28.338;2022-12-07T09:29:24;100048.19;;;11.90;100.00
26087;BME280;13851;43.434;28.338;2022-12-07T09:31:50;100024.53;;;11.89;100.00
26087;BME280;13851;43.434;28.338;2022-12-07T09:34:16;100071.25;;;11.81;100.00
26087;BME280;13851;43.434;28.338;2022-12-07T09:36:42;100052.94;;;11.96;100.00
26087;BME280;13851;43.434;28.338;2022-12-07T09:39:08;100057.69;;;12.03;100.00
26087;BME280;13851;43.434;28.338;2022-12-07T09:41:37;99744.53;;;10.33;100.00
26087;BME280;13851;43.434;28.338;2022-12-07T09:44:07;100008.47;;;11.40;100.00
26087;BME280;13851;43.434;28.338;2022-12-07T09:46:36;100037.41;;;11.66;100.00
26087;BME280;13851;43.434;28.338;2022-12-07T09:49:04;100054.13;;;11.33;100.00
26087;BME280;13851;43.434;28.338;2022-12-07T09:51:31;99997.56;;;11.09;100.00
26087;BME280;13851;43.434;28.338;2022-12-07T09:53:57;99994.22;;;10.99;100.00
26087;BME280;13851;43.434;28.338;2022-12-07T09:56:23;99972.28;;;10.76;100.00
26087;BME280;13851;43.434;28.338;2022-12-07T09:58:54;99994.38;;;11.06;100.00
26087;BME280;13851;43.434;28.338;2022-12-07T10:01:29;99978.63;;;11.00;100.00
26087;BME280;13851;43.434;28.338;2022-12-07T10:04:08;100028.09;;;11.29;100.00
26087;BME280;13851;43.434;28.338;2022-12-07T10:06:37;99994.25;;;11.22;100.00
26087;BME280;13851;43.434;28.338;2022-12-07T10:09:09;100018.13;;;11.74;100.00
26087;BME280;13851;43.434;28.338;2022-12-07T10:12:18;100034.31;;;12.07;100.00
26087;BME280;13851;43.434;28.338;2022-12-07T10:15:08;100014.97;;;11.85;100.00
26087;BME280;13851;43.434;28.338;2022-12-07T10:17:39;99765.97;;;10.30;100.00
26087;BME280;13851;43.434;28.338;2022-12-07T10:20:13;100043.50;;;11.76;100.00
26087;BME280;13851;43.434;28.338;2022-12-07T10:22:54;99996.81;;;11.84;100.00
26087;BME280;13851;43.434;28.338;2022-12-07T10:25:22;99999.75;;;12.12;100.00
26087;BME280;13851;43.434;28.338;2022-12-07T10:28:19;99949.59;;;12.18;100.00
26087;BME280;13851;43.434;28.338;2022-12-07T10:31:14;99990.28;;;12.30;100.00
26087;BME280;13851;43.434;28.338;2022-12-07T10:33:58;99983.84;;;12.37;100.00
26087;BME280;13851;43.434;28.338;2022-12-07T10:39:15;99959.75;;;12.54;100.00
26087;BME280;13851;43.434;28.338;2022-12-07T10:42:00;99976.13;;;12.98;100.00
26087;BME280;13851;43.434;28.338;2022-12-07T10:44:31;99947.81;;;12.47;100.00
26087;BME280;13851;43.434;28.338;2022-12-07T10:50:42;99984.94;;;12.58;100.00
26087;BME280;13851;43.434;28.338;2022-12-07T11:12:45;100002.81;;;11.42;100.00
26087;BME280;13851;43.434;28.338;2022-12-07T11:21:24;99999.38;;;11.63;100.00
26087;BME280;13851;43.434;28.338;2022-12-07T11:32:04;99984.56;;;11.11;100.00
26087;BME280;13851;43.434;28.338;2022-12-07T11:34:58;99856.34;;;10.22;100.00
26087;BME280;13851;43.434;28.338;2022-12-07T11:37:33;99934.06;;;10.52;100.00
26087;BME280;13851;43.434;28.338;2022-12-07T11:40:48;99988.19;;;10.81;100.00
26087;BME280;13851;43.434;28.338;2022-12-07T11:42:58;99839.28;;;9.72;100.00
26087;BME280;13851;43.434;28.338;2022-12-07T11:45:31;99990.28;;;11.02;100.00
26087;BME280;13851;43.434;28.338;2022-12-07T11:48:01;99979.16;;;10.95;100.00
26087;BME280;13851;43.434;28.338;2022-12-07T12:04:19;99984.75;;;10.79;100.00
26087;BME280;13851;43.434;28.338;2022-12-07T12:06:47;99932.06;;;10.46;100.00
26087;BME280;13851;43.434;28.338;2022-12-07T12:09:18;99966.84;;;10.68;100.00
26087;BME280;13851;43.434;28.338;2022-12-07T12:12:08;99967.22;;;10.65;100.00
26087;BME280;13851;43.434;28.338;2022-12-07T12:14:45;100015.50;;;10.66;100.00
26087;BME280;13851;43.434;28.338;2022-12-07T12:22:59;99903.22;;;10.27;100.00
26087;BME280;13851;43.434;28.338;2022-12-07T12:25:50;99905.13;;;10.26;100.00
26087;BME280;13851;43.434;28.338;2022-12-07T12:28:41;99906.16;;;10.25;100.00
26087;BME280;13851;43.434;28.338;2022-12-07T12:31:15;99688.91;;;8.94;100.00
26087;BME280;13851;43.434;28.338;2022-12-07T12:50:17;99951.53;;;10.51;100.00
26087;BME280;13851;43.434;28.338;2022-12-07T12:57:35;99715.38;;;9.01;100.00
26087;BME280;13851;43.434;28.338;2022-12-07T13:00:18;99715.69;;;9.06;100.00
26087;BME280;13851;43.434;28.338;2022-12-07T13:02:54;99888.75;;;10.10;100.00
26087;BME280;13851;43.434;28.338;2022-12-07T13:05:25;99900.34;;;10.12;100.00
26087;BME280;13851;43.434;28.338;2022-12-07T13:10:34;99953.22;;;10.60;100.00
26087;BME280;13851;43.434;28.338;2022-12-07T13:15:51;99958.72;;;10.52;100.00
26087;BME280;13851;43.434;28.338;2022-12-07T13:29:19;99873.22;;;9.55;100.00
26087;BME280;13851;43.434;28.338;2022-12-07T13:31:54;99946.81;;;9.89;100.00
26087;BME280;13851;43.434;28.338;2022-12-07T13:34:33;100005.41;;;10.11;100.00
26087;BME280;13851;43.434;28.338;2022-12-07T13:37:01;99962.72;;;9.94;100.00
26087;BME280;13851;43.434;28.338;2022-12-07T13:39:28;99940.63;;;9.87;100.00
26087;BME280;13851;43.434;28.338;2022-12-07T13:41:58;99965.41;;;10.02;100.00
26087;BME280;13851;43.434;28.338;2022-12-07T13:44:27;99952.28;;;9.81;100.00
26087;BME280;13851;43.434;28.338;2022-12-07T13:47:18;99961.66;;;9.95;100.00
26087;BME280;13851;43.434;28.338;2022-12-07T13:49:52;99676.19;;;8.29;100.00
26087;BME280;13851;43.434;28.338;2022-12-07T13:52:21;99903.63;;;9.68;100.00
26087;BME280;13851;43.434;28.338;2022-12-07T13:54:58;99951.63;;;9.71;100.00
26087;BME280;13851;43.434;28.338;2022-12-07T13:57:25;99937.94;;;9.79;100.00
26087;BME280;13851;43.434;28.338;2022-12-07T13:59:52;99968.84;;;9.96;100.00
26087;BME280;13851;43.434;28.338;2022-12-07T14:02:25;99947.34;;;9.84;100.00
26087;BME280;13851;43.434;28.338;2022-12-07T14:04:51;99962.53;;;9.87;100.00
26087;BME280;13851;43.434;28.338;2022-12-07T14:07:30;99981.34;;;9.98;100.00
26087;BME280;13851;43.434;28.338;2022-12-07T14:10:00;99995.03;;;9.98;100.00
26087;BME280;13851;43.434;28.338;2022-12-07T14:12:27;99996.88;;;10.06;100.00
26087;BME280;13851;43.434;28.338;2022-12-07T14:14:53;100025.06;;;10.14;100.00
26087;BME280;13851;43.434;28.338;2022-12-07T14:17:25;99984.16;;;10.13;100.00
26087;BME280;13851;43.434;28.338;2022-12-07T14:20:02;99997.16;;;10.27;100.00
26087;BME280;13851;43.434;28.338;2022-12-07T14:22:35;99995.47;;;10.26;100.00
26087;BME280;13851;43.434;28.338;2022-12-07T14:27:40;99951.38;;;9.97;100.00
26087;BME280;13851;43.434;28.338;2022-12-07T14:30:16;99989.41;;;9.83;100.00
26087;BME280;13851;43.434;28.338;2022-12-07T14:32:43;99984.22;;;10.05;100.00
26087;BME280;13851;43.434;28.338;2022-12-07T14:35:16;99991.72;;;10.11;100.00
26087;BME280;13851;43.434;28.338;2022-12-07T14:37:44;99997.19;;;10.11;100.00
26087;BME280;13851;43.434;28.338;2022-12-07T14:40:20;99919.66;;;9.71;100.00
26087;BME280;13851;43.434;28.338;2022-12-07T14:42:49;99988.47;;;10.15;100.00
26087;BME280;13851;43.434;28.338;2022-12-07T14:45:18;99987.09;;;10.11;100.00
26087;BME280;13851;43.434;28.338;2022-12-07T14:47:45;99809.91;;;9.19;100.00
26087;BME280;13851;43.434;28.338;2022-12-07T14:50:18;99975.63;;;10.16;100.00
26087;BME280;13851;43.434;28.338;2022-12-07T14:52:50;99940.31;;;9.90;100.00
26087;BME280;13851;43.434;28.338;2022-12-07T14:55:28;99987.28;;;10.10;100.00